Time;durP1;ratioP1;P1;durP2;ratioP2;P2;SDS_P1;SDS_P2;PMS_P1;PMS_P2;Temp;Humidity;BMP_temperature;BMP_pressure;BME280_temperature;BME280_humidity;BME280_pressure;Samples;Min_cycle;Max_cycle;Signal;HPM_P1;HPM_P2
2022/08/31 00:06:10;;;;;;;0.00;0.00;;;21.70;70.50;;;;;;5050306;28;20215;-58
2022/08/31 00:08:36;;;;;;;0.00;0.00;;;21.60;70.50;;;;;;5049934;28;20265;-58
2022/08/31 00:11:01;;;;;;;0.00;0.00;;;21.70;71.10;;;;;;5050891;28;20185;-58
2022/08/31 00:13:27;;;;;;;0.00;0.00;;;21.70;71.80;;;;;;5049977;28;20170;-58
2022/08/31 00:15:54;;;;;;;0.00;0.00;;;21.70;73.40;;;;;;5046601;28;20184;-58
2022/08/31 00:18:21;;;;;;;0.00;0.00;;;21.60;77.90;;;;;;5050813;28;20182;-58
2022/08/31 00:20:47;;;;;;;0.00;0.00;;;21.40;83.40;;;;;;5050841;28;20224;-57
2022/08/31 00:23:14;;;;;;;0.00;0.00;;;21.30;88.10;;;;;;5052035;28;20177;-58
2022/08/31 00:25:43;;;;;;;0.10;0.10;;;21.10;92.00;;;;;;5054666;28;20709;-58
2022/08/31 00:28:10;;;;;;;0.00;0.00;;;21.00;96.30;;;;;;5054308;28;20192;-58
2022/08/31 00:30:36;;;;;;;0.00;0.00;;;20.90;99.90;;;;;;5054507;28;20184;-58
2022/08/31 00:33:03;;;;;;;0.00;0.00;;;20.70;99.90;;;;;;5054441;28;20193;-58
2022/08/31 00:35:31;;;;;;;0.00;0.00;;;20.60;99.90;;;;;;5054674;28;20223;-58
2022/08/31 00:37:57;;;;;;;0.00;0.00;;;20.50;99.90;;;;;;5054232;28;20200;-58
2022/08/31 00:40:23;;;;;;;0.00;0.00;;;20.40;99.90;;;;;;5054275;28;20217;-58
2022/08/31 00:42:49;;;;;;;0.00;0.00;;;20.40;99.90;;;;;;5054277;28;20260;-58
2022/08/31 00:45:15;;;;;;;0.00;0.00;;;20.40;99.90;;;;;;5054516;28;20315;-58
2022/08/31 00:47:41;;;;;;;0.00;0.00;;;20.30;99.90;;;;;;5054173;28;20948;-58
2022/08/31 00:50:10;;;;;;;0.00;0.00;;;20.20;99.90;;;;;;5054000;28;20240;-58
2022/08/31 00:52:39;;;;;;;0.00;0.00;;;20.20;99.90;;;;;;5052602;28;20174;-58
2022/08/31 00:55:12;;;;;;;0.00;0.00;;;20.20;99.90;;;;;;5053399;28;20186;-58
2022/08/31 00:57:41;;;;;;;0.00;0.00;;;20.20;99.90;;;;;;5053661;28;20185;-58
2022/08/31 01:00:12;;;;;;;0.00;0.00;;;20.30;99.90;;;;;;5053966;28;20209;-58
2022/08/31 01:02:38;;;;;;;0.00;0.00;;;20.20;99.90;;;;;;5053269;28;20229;-58
2022/08/31 01:05:04;;;;;;;0.00;0.00;;;20.20;99.90;;;;;;5053612;28;20667;-58
2022/08/31 01:07:30;;;;;;;0.00;0.00;;;20.10;99.90;;;;;;5053533;28;20535;-58
2022/08/31 01:09:58;;;;;;;0.00;0.00;;;20.10;99.90;;;;;;5053313;28;20272;-58
2022/08/31 01:12:25;;;;;;;0.00;0.00;;;20.20;99.90;;;;;;5053521;28;20512;-58
2022/08/31 01:14:51;;;;;;;0.00;0.00;;;20.20;99.90;;;;;;5053808;28;20192;-58
2022/08/31 01:17:17;;;;;;;0.00;0.00;;;20.20;99.90;;;;;;5053223;28;20260;-58
2022/08/31 01:19:52;;;;;;;0.00;0.00;;;20.20;99.90;;;;;;5053233;28;20209;-58
2022/08/31 01:22:34;;;;;;;0.00;0.00;;;20.20;99.90;;;;;;5053959;28;20670;-57
2022/08/31 01:25:00;;;;;;;0.00;0.00;;;20.10;99.90;;;;;;5052776;28;20192;-57
2022/08/31 01:27:30;;;;;;;0.00;0.00;;;20.10;99.90;;;;;;5052856;28;20181;-58
2022/08/31 01:30:02;;;;;;;0.00;0.00;;;20.10;99.90;;;;;;5053286;28;20185;-57
2022/08/31 01:32:28;;;;;;;0.00;0.00;;;20.10;99.90;;;;;;5053479;28;20640;-57
2022/08/31 01:34:53;;;;;;;0.00;0.00;;;20.00;99.90;;;;;;5051205;28;20186;-57
2022/08/31 01:37:19;;;;;;;0.30;0.30;;;20.00;99.90;;;;;;5052656;28;20254;-57
2022/08/31 01:39:45;;;;;;;0.00;0.00;;;20.00;99.90;;;;;;5052994;28;20209;-57
2022/08/31 01:42:10;;;;;;;0.00;0.00;;;20.00;99.90;;;;;;5052997;28;20186;-57
2022/08/31 01:44:36;;;;;;;0.00;0.00;;;20.00;99.90;;;;;;5053025;28;20323;-58
2022/08/31 01:47:01;;;;;;;0.00;0.00;;;20.00;99.90;;;;;;5052491;28;20182;-58
2022/08/31 01:49:27;;;;;;;0.00;0.00;;;20.00;99.90;;;;;;5053451;28;20188;-57
2022/08/31 01:51:53;;;;;;;0.00;0.00;;;20.00;99.90;;;;;;5052656;28;20256;-57
2022/08/31 01:54:21;;;;;;;0.00;0.00;;;19.90;99.90;;;;;;5052793;28;20180;-57
2022/08/31 01:56:48;;;;;;;0.00;0.00;;;19.90;99.90;;;;;;5052657;28;20228;-57
2022/08/31 01:59:17;;;;;;;0.00;0.00;;;19.90;99.90;;;;;;5052306;28;20219;-57
2022/08/31 02:01:47;;;;;;;0.00;0.00;;;19.80;99.90;;;;;;5052514;28;21023;-57
2022/08/31 02:04:14;;;;;;;0.00;0.00;;;19.80;99.90;;;;;;5052692;28;20644;-57
2022/08/31 02:06:43;;;;;;;0.00;0.00;;;19.70;99.90;;;;;;5052585;28;20177;-57
2022/08/31 02:09:09;;;;;;;0.00;0.00;;;19.70;99.90;;;;;;5052363;28;20551;-57
2022/08/31 02:11:34;;;;;;;0.30;0.30;;;19.60;99.90;;;;;;5052934;28;20185;-57
2022/08/31 02:14:00;;;;;;;0.00;0.00;;;19.60;99.90;;;;;;5052092;28;20295;-58
2022/08/31 02:16:25;;;;;;;0.00;0.00;;;19.60;99.90;;;;;;5052137;28;20196;-57
2022/08/31 02:18:51;;;;;;;0.00;0.00;;;19.60;99.90;;;;;;5052333;28;20192;-57
2022/08/31 02:21:17;;;;;;;0.00;0.00;;;19.60;99.90;;;;;;5052382;28;20193;-57
2022/08/31 02:23:43;;;;;;;0.00;0.00;;;19.60;99.90;;;;;;5052069;28;20708;-57
2022/08/31 02:26:09;;;;;;;0.00;0.00;;;19.60;99.90;;;;;;5052387;28;20187;-57
2022/08/31 02:28:35;;;;;;;0.00;0.00;;;19.60;99.90;;;;;;5052374;28;20536;-57
2022/08/31 02:31:00;;;;;;;0.00;0.00;;;19.50;99.90;;;;;;5052067;28;20186;-57
2022/08/31 02:33:26;;;;;;;0.00;0.00;;;19.50;99.90;;;;;;5052213;28;20705;-57
2022/08/31 02:35:52;;;;;;;0.00;0.00;;;19.50;99.90;;;;;;5051940;28;20185;-57
2022/08/31 02:38:17;;;;;;;0.00;0.00;;;19.50;99.90;;;;;;5051523;28;20177;-57
2022/08/31 02:40:43;;;;;;;0.10;0.10;;;19.50;99.90;;;;;;5051973;28;20213;-57
2022/08/31 02:43:10;;;;;;;0.00;0.00;;;19.50;99.90;;;;;;5052261;28;20173;-57
2022/08/31 02:45:37;;;;;;;0.00;0.00;;;19.50;99.90;;;;;;5051734;28;20267;-57
2022/08/31 02:48:08;;;;;;;0.00;0.00;;;19.50;99.90;;;;;;5052014;28;20209;-57
2022/08/31 02:50:43;;;;;;;0.00;0.00;;;19.50;99.90;;;;;;5052126;28;20177;-57
2022/08/31 02:53:10;;;;;;;0.00;0.00;;;19.50;99.90;;;;;;5051820;28;20193;-57
2022/08/31 02:55:36;;;;;;;0.00;0.00;;;19.50;99.90;;;;;;5039053;28;20210;-57
2022/08/31 02:58:03;;;;;;;0.00;0.00;;;19.40;99.90;;;;;;5051956;28;20272;-58
2022/08/31 03:00:30;;;;;;;0.00;0.00;;;19.30;99.90;;;;;;5051095;28;20216;-57
2022/08/31 03:02:55;;;;;;;0.00;0.00;;;19.30;99.90;;;;;;5051544;28;20575;-57
2022/08/31 03:05:21;;;;;;;0.00;0.00;;;19.40;99.90;;;;;;5051994;28;20181;-57
2022/08/31 03:07:48;;;;;;;0.00;0.00;;;19.40;99.90;;;;;;5051475;28;20177;-57
2022/08/31 03:10:15;;;;;;;0.00;0.00;;;19.40;99.90;;;;;;5051254;28;20181;-57
2022/08/31 03:12:40;;;;;;;0.05;0.05;;;19.50;99.90;;;;;;5051310;28;20174;-57
2022/08/31 03:15:08;;;;;;;0.22;0.22;;;19.50;99.90;;;;;;5050949;28;20281;-57
2022/08/31 03:17:35;;;;;;;0.30;0.30;;;19.50;99.90;;;;;;5050919;28;20648;-57
2022/08/31 03:20:03;;;;;;;0.28;0.28;;;19.60;99.90;;;;;;5051399;28;20680;-57
2022/08/31 03:22:30;;;;;;;0.08;0.08;;;19.60;99.90;;;;;;5051815;28;20184;-57
2022/08/31 03:24:55;;;;;;;0.00;0.00;;;19.70;99.90;;;;;;5051121;28;20260;-57
2022/08/31 03:27:21;;;;;;;0.00;0.00;;;19.70;99.90;;;;;;5050904;28;20273;-57
2022/08/31 03:29:47;;;;;;;0.10;0.00;;;19.80;99.90;;;;;;5051179;28;20595;-57
2022/08/31 03:32:12;;;;;;;0.35;0.35;;;19.80;99.90;;;;;;5049938;28;20595;-57
2022/08/31 03:34:38;;;;;;;0.00;0.00;;;19.90;99.90;;;;;;5050865;28;20676;-57
2022/08/31 03:37:04;;;;;;;0.00;0.00;;;19.90;99.90;;;;;;5051143;28;20219;-57
2022/08/31 03:39:29;;;;;;;0.00;0.00;;;20.00;99.90;;;;;;5050563;28;20217;-58
2022/08/31 03:41:55;;;;;;;0.00;0.00;;;20.00;99.90;;;;;;5049700;28;20181;-57
2022/08/31 03:44:22;;;;;;;0.00;0.00;;;19.90;99.90;;;;;;5050770;28;20219;-57
2022/08/31 03:46:49;;;;;;;0.00;0.00;;;19.90;99.90;;;;;;5051246;28;20189;-57
2022/08/31 03:49:17;;;;;;;0.32;0.32;;;19.80;99.90;;;;;;5050843;28;20200;-56
2022/08/31 03:51:44;;;;;;;0.00;0.00;;;19.80;99.90;;;;;;5050494;28;20637;-56
2022/08/31 03:54:09;;;;;;;0.00;0.00;;;19.80;99.90;;;;;;5050639;28;20269;-57
2022/08/31 03:56:36;;;;;;;0.00;0.00;;;19.80;99.90;;;;;;5050700;28;20205;-56
2022/08/31 03:59:02;;;;;;;0.00;0.00;;;19.80;99.90;;;;;;5053051;28;20227;-57
2022/08/31 04:01:27;;;;;;;0.03;0.03;;;19.80;99.90;;;;;;5054586;28;20225;-57
2022/08/31 04:03:53;;;;;;;0.10;0.10;;;19.80;99.90;;;;;;5053676;28;20182;-57
2022/08/31 04:06:19;;;;;;;0.00;0.00;;;19.80;99.90;;;;;;5054710;28;20209;-58
2022/08/31 04:08:45;;;;;;;0.00;0.00;;;19.80;99.90;;;;;;5053755;28;20191;-57
2022/08/31 04:11:14;;;;;;;0.00;0.00;;;19.80;99.90;;;;;;5054040;28;20260;-57
2022/08/31 04:13:40;;;;;;;0.00;0.00;;;19.80;99.90;;;;;;5053796;28;20196;-57
2022/08/31 04:16:08;;;;;;;0.00;0.00;;;19.80;99.90;;;;;;5047264;28;20603;-57
2022/08/31 04:18:35;;;;;;;0.00;0.00;;;19.80;99.90;;;;;;5054822;28;20212;-57
2022/08/31 04:21:01;;;;;;;0.00;0.00;;;19.70;99.90;;;;;;5054104;28;20213;-58
2022/08/31 04:23:28;;;;;;;0.00;0.00;;;19.70;99.90;;;;;;5054711;28;20252;-57
2022/08/31 04:25:55;;;;;;;0.00;0.00;;;19.70;99.90;;;;;;5054700;28;20308;-58
2022/08/31 04:28:20;;;;;;;0.00;0.00;;;19.70;99.90;;;;;;5054451;28;20177;-58
2022/08/31 04:30:47;;;;;;;0.00;0.00;;;19.70;99.90;;;;;;5054029;28;20181;-59
2022/08/31 04:33:14;;;;;;;0.00;0.00;;;19.80;99.90;;;;;;5054496;28;20184;-57
2022/08/31 04:35:40;;;;;;;0.10;0.10;;;19.70;99.90;;;;;;5054149;28;20209;-56
2022/08/31 04:38:06;;;;;;;0.00;0.00;;;19.70;99.90;;;;;;5053438;28;20188;-61
2022/08/31 04:40:32;;;;;;;0.00;0.00;;;19.80;99.90;;;;;;5053281;28;20213;-59
2022/08/31 04:42:58;;;;;;;0.70;0.70;;;19.80;99.90;;;;;;5054699;28;20191;-58
2022/08/31 04:45:24;;;;;;;0.00;0.00;;;20.00;99.90;;;;;;5053587;28;20191;-57
2022/08/31 04:47:50;;;;;;;0.13;0.13;;;20.10;99.90;;;;;;5054509;28;20182;-57
2022/08/31 04:50:15;;;;;;;0.00;0.00;;;20.00;99.90;;;;;;5054227;28;20208;-57
2022/08/31 04:52:42;;;;;;;0.00;0.00;;;20.00;99.90;;;;;;5054517;28;20189;-57
2022/08/31 04:55:09;;;;;;;0.00;0.00;;;19.90;99.90;;;;;;5054518;28;20243;-57
2022/08/31 04:57:35;;;;;;;0.00;0.00;;;19.80;99.90;;;;;;5054289;28;20264;-57
2022/08/31 05:00:03;;;;;;;0.00;0.00;;;19.80;99.90;;;;;;5054368;28;20312;-58
2022/08/31 05:02:29;;;;;;;0.00;0.00;;;19.70;99.90;;;;;;5052783;28;20228;-57
2022/08/31 05:04:54;;;;;;;0.00;0.00;;;19.60;99.90;;;;;;5054457;28;20177;-57
2022/08/31 05:07:20;;;;;;;0.00;0.00;;;19.50;99.90;;;;;;5054342;28;20636;-57
2022/08/31 05:09:45;;;;;;;0.00;0.00;;;19.50;99.90;;;;;;5054455;28;20228;-57
2022/08/31 05:12:11;;;;;;;0.00;0.00;;;19.50;99.90;;;;;;5054127;28;20189;-57
2022/08/31 05:14:38;;;;;;;0.00;0.00;;;19.40;99.90;;;;;;5054333;28;20834;-57
2022/08/31 05:17:05;;;;;;;0.00;0.00;;;19.40;99.90;;;;;;5054100;28;20176;-57
2022/08/31 05:19:30;;;;;;;0.00;0.00;;;19.50;99.90;;;;;;5053983;28;20218;-57
2022/08/31 05:21:56;;;;;;;0.00;0.00;;;19.40;99.90;;;;;;5054166;28;20178;-57
2022/08/31 05:24:22;;;;;;;0.00;0.00;;;19.40;99.90;;;;;;5053937;28;20230;-57
2022/08/31 05:26:51;;;;;;;0.00;0.00;;;19.40;99.90;;;;;;5053959;28;20173;-57
2022/08/31 05:29:22;;;;;;;0.00;0.00;;;19.40;99.90;;;;;;5053906;28;20307;-57
2022/08/31 05:31:48;;;;;;;0.00;0.00;;;19.40;99.90;;;;;;5053768;28;20177;-57
2022/08/31 05:34:14;;;;;;;0.00;0.00;;;19.30;99.90;;;;;;5053868;28;20176;-57
2022/08/31 05:36:42;;;;;;;0.00;0.00;;;19.30;99.90;;;;;;5053868;28;20181;-57
2022/08/31 05:39:10;;;;;;;0.00;0.00;;;19.30;99.90;;;;;;5053627;28;20181;-56
2022/08/31 05:41:41;;;;;;;0.00;0.00;;;19.30;99.90;;;;;;5053793;28;20177;-57
2022/08/31 05:44:07;;;;;;;0.55;0.55;;;19.30;99.90;;;;;;5053899;28;20177;-57
2022/08/31 05:46:34;;;;;;;0.00;0.00;;;19.30;99.90;;;;;;5053882;28;20185;-57
2022/08/31 05:48:59;;;;;;;0.00;0.00;;;19.30;99.90;;;;;;5053310;28;20182;-57
2022/08/31 05:51:25;;;;;;;0.00;0.00;;;19.30;99.90;;;;;;5053451;28;20181;-56
2022/08/31 05:53:51;;;;;;;0.00;0.00;;;19.30;99.90;;;;;;5053564;28;20216;-56
2022/08/31 05:56:19;;;;;;;0.00;0.00;;;19.40;99.90;;;;;;5053329;28;20181;-57
2022/08/31 05:58:46;;;;;;;0.00;0.00;;;19.40;99.90;;;;;;5053407;28;20177;-56
2022/08/31 06:01:32;;;;;;;0.00;0.00;;;19.40;99.90;;;;;;5053143;28;20275;-57
2022/08/31 06:03:59;;;;;;;0.00;0.00;;;19.40;99.90;;;;;;5053232;28;20535;-56
2022/08/31 06:06:25;;;;;;;0.00;0.00;;;19.50;99.90;;;;;;5053293;28;20205;-57
2022/08/31 06:08:51;;;;;;;0.00;0.00;;;19.50;99.90;;;;;;5053153;28;20180;-57
2022/08/31 06:11:19;;;;;;;0.00;0.00;;;19.50;99.90;;;;;;5052973;28;20173;-57
2022/08/31 06:13:46;;;;;;;0.00;0.00;;;19.60;99.90;;;;;;5053209;28;20181;-57
2022/08/31 06:16:12;;;;;;;0.00;0.00;;;19.60;99.90;;;;;;5053022;28;20189;-57
2022/08/31 06:18:48;;;;;;;0.00;0.00;;;19.70;99.90;;;;;;5052863;28;20637;-56
2022/08/31 06:21:14;;;;;;;0.00;0.00;;;19.70;99.90;;;;;;5052288;28;20247;-57
2022/08/31 06:23:43;;;;;;;0.00;0.00;;;19.70;99.90;;;;;;5052770;28;20181;-57
2022/08/31 06:26:14;;;;;;;0.00;0.00;;;19.70;99.90;;;;;;5052778;28;20184;-57
2022/08/31 06:28:45;;;;;;;0.00;0.00;;;19.80;99.90;;;;;;5052843;28;20260;-56
2022/08/31 06:31:18;;;;;;;0.00;0.00;;;19.80;99.90;;;;;;5052672;28;20232;-57
2022/08/31 06:33:44;;;;;;;0.00;0.00;;;19.80;99.90;;;;;;5052747;28;20178;-57
2022/08/31 06:36:12;;;;;;;0.00;0.00;;;19.80;99.90;;;;;;5052503;28;20181;-57
2022/08/31 06:38:39;;;;;;;0.00;0.00;;;19.80;99.90;;;;;;5052597;28;20629;-57
2022/08/31 06:41:13;;;;;;;0.10;0.10;;;19.90;99.90;;;;;;5052483;28;20304;-57
2022/08/31 06:43:39;;;;;;;0.00;0.00;;;19.90;99.90;;;;;;5052492;28;20173;-57
2022/08/31 06:46:05;;;;;;;0.00;0.00;;;19.90;99.90;;;;;;5052542;28;20185;-57
2022/08/31 06:48:31;;;;;;;0.00;0.00;;;20.00;99.90;;;;;;5052390;28;20174;-57
2022/08/31 06:50:58;;;;;;;0.00;0.00;;;20.00;99.90;;;;;;5052250;28;20216;-56
2022/08/31 06:53:24;;;;;;;0.00;0.00;;;20.00;99.90;;;;;;5052182;28;20185;-56
2022/08/31 06:55:49;;;;;;;0.00;0.00;;;20.00;99.90;;;;;;5052425;28;20218;-57
2022/08/31 06:58:15;;;;;;;0.00;0.00;;;20.00;99.90;;;;;;5052233;28;20218;-57
2022/08/31 07:00:41;;;;;;;0.00;0.00;;;20.10;99.90;;;;;;5052158;28;20221;-57
2022/08/31 07:03:22;;;;;;;0.28;0.28;;;20.20;99.90;;;;;;5051940;28;20225;-57
2022/08/31 07:05:50;;;;;;;0.00;0.00;;;20.20;99.90;;;;;;5052148;28;20184;-57
2022/08/31 07:08:16;;;;;;;0.00;0.00;;;20.30;99.90;;;;;;5051942;28;20219;-57
2022/08/31 07:10:42;;;;;;;0.00;0.00;;;20.40;99.90;;;;;;5052043;28;20173;-57
2022/08/31 07:13:08;;;;;;;0.00;0.00;;;20.40;99.90;;;;;;5052166;28;20188;-58
2022/08/31 07:15:33;;;;;;;0.00;0.00;;;20.40;99.90;;;;;;5052072;28;20195;-58
2022/08/31 07:17:59;;;;;;;0.00;0.00;;;20.50;99.90;;;;;;5051943;28;20205;-58
2022/08/31 07:20:24;;;;;;;0.00;0.00;;;20.50;99.90;;;;;;5051852;28;20209;-58
2022/08/31 07:22:50;;;;;;;0.00;0.00;;;20.60;99.90;;;;;;5051997;28;20207;-58
2022/08/31 07:25:16;;;;;;;0.00;0.00;;;20.60;99.90;;;;;;5051721;28;20644;-58
2022/08/31 07:27:43;;;;;;;0.00;0.00;;;20.60;99.90;;;;;;5051952;28;20182;-58
2022/08/31 07:30:09;;;;;;;0.00;0.00;;;20.60;99.90;;;;;;5051751;28;20185;-58
2022/08/31 07:32:37;;;;;;;0.00;0.00;;;20.60;99.90;;;;;;5050940;28;20173;-58
2022/08/31 07:35:03;;;;;;;0.00;0.00;;;20.50;99.90;;;;;;5051877;28;20304;-58
2022/08/31 07:43:03;;;;;;;0.00;0.00;;;20.50;99.90;;;;;;5051692;28;20177;-58
2022/08/31 07:45:29;;;;;;;0.10;0.10;;;20.40;99.90;;;;;;5051790;28;20174;-58
2022/08/31 07:47:55;;;;;;;0.00;0.00;;;20.40;99.90;;;;;;5051811;28;20182;-58
2022/08/31 07:50:21;;;;;;;0.10;0.10;;;20.40;99.90;;;;;;5051594;28;20272;-58
2022/08/31 07:52:53;;;;;;;0.00;0.00;;;20.30;99.90;;;;;;5051659;28;20280;-58
2022/08/31 07:55:24;;;;;;;0.00;0.00;;;20.30;99.90;;;;;;5051495;28;20251;-58
2022/08/31 07:57:52;;;;;;;0.00;0.00;;;20.40;99.90;;;;;;5051645;28;20227;-58
2022/08/31 08:00:21;;;;;;;0.00;0.00;;;20.40;99.90;;;;;;5051332;28;20217;-58
2022/08/31 08:02:47;;;;;;;0.00;0.00;;;20.40;99.90;;;;;;5051549;28;20727;-58
2022/08/31 08:05:19;;;;;;;0.00;0.00;;;20.40;99.90;;;;;;5051510;28;20231;-58
2022/08/31 08:07:47;;;;;;;0.00;0.00;;;20.40;99.90;;;;;;5051552;28;20567;-58
2022/08/31 08:10:13;;;;;;;0.00;0.00;;;20.40;99.90;;;;;;5051456;28;20266;-58
2022/08/31 08:12:41;;;;;;;0.00;0.00;;;20.40;99.90;;;;;;5051522;28;20173;-58
2022/08/31 08:15:07;;;;;;;0.00;0.00;;;20.40;99.90;;;;;;5051404;28;20178;-59
2022/08/31 08:17:32;;;;;;;0.00;0.00;;;20.40;99.90;;;;;;5051511;28;20251;-58
2022/08/31 08:19:58;;;;;;;0.00;0.00;;;20.50;99.90;;;;;;5051238;28;20245;-58
2022/08/31 08:22:23;;;;;;;0.00;0.00;;;20.50;99.90;;;;;;5051358;28;20181;-58
2022/08/31 08:24:49;;;;;;;0.00;0.00;;;20.50;99.90;;;;;;5051462;28;20177;-58
2022/08/31 08:27:15;;;;;;;0.00;0.00;;;20.40;99.90;;;;;;5051263;28;20213;-58
2022/08/31 08:29:41;;;;;;;0.00;0.00;;;20.40;99.90;;;;;;5051348;28;20276;-58
2022/08/31 08:32:07;;;;;;;0.08;0.08;;;20.40;99.90;;;;;;5051280;28;20181;-58
2022/08/31 08:34:33;;;;;;;0.00;0.00;;;20.40;99.90;;;;;;5051342;28;20190;-58
2022/08/31 08:36:59;;;;;;;0.00;0.00;;;20.50;99.90;;;;;;5051228;28;20649;-58
2022/08/31 08:39:25;;;;;;;0.00;0.00;;;20.60;99.90;;;;;;5051035;28;20730;-58
2022/08/31 08:41:55;;;;;;;0.00;0.00;;;20.60;99.90;;;;;;5051089;28;20243;-58
2022/08/31 08:44:23;;;;;;;0.00;0.00;;;20.70;99.90;;;;;;5052410;28;20621;-58
2022/08/31 08:47:02;;;;;;;0.00;0.00;;;20.70;99.90;;;;;;5054843;28;20204;-58
2022/08/31 08:49:48;;;;;;;0.00;0.00;;;20.70;99.90;;;;;;5054927;28;20535;-58
2022/08/31 08:52:27;;;;;;;0.00;0.00;;;20.70;99.90;;;;;;5054615;28;20235;-58
2022/08/31 08:54:55;;;;;;;0.00;0.00;;;20.70;99.90;;;;;;5054719;28;20207;-58
2022/08/31 08:57:27;;;;;;;0.00;0.00;;;20.70;99.90;;;;;;5054534;28;20177;-58
2022/08/31 09:00:05;;;;;;;0.00;0.00;;;20.70;99.90;;;;;;5054369;28;20209;-58
2022/08/31 09:02:36;;;;;;;0.00;0.00;;;20.80;99.90;;;;;;5054341;28;20227;-58
2022/08/31 09:05:09;;;;;;;0.00;0.00;;;20.80;99.90;;;;;;5054444;28;20173;-59
2022/08/31 09:08:08;;;;;;;0.00;0.00;;;20.90;99.90;;;;;;5054662;28;20185;-58
2022/08/31 09:10:44;;;;;;;0.00;0.00;;;20.90;99.90;;;;;;5054547;28;20173;-58
2022/08/31 09:13:29;;;;;;;0.00;0.00;;;21.00;99.90;;;;;;5054417;28;20189;-58
2022/08/31 09:16:13;;;;;;;0.00;0.00;;;21.10;99.90;;;;;;5054292;28;20754;-58
2022/08/31 09:18:45;;;;;;;0.00;0.00;;;21.20;99.90;;;;;;5054078;28;20177;-58
2022/08/31 09:21:29;;;;;;;0.00;0.00;;;21.20;99.90;;;;;;5054060;28;20217;-58
2022/08/31 09:24:05;;;;;;;0.00;0.00;;;21.20;99.90;;;;;;5054261;28;20543;-58
2022/08/31 09:26:45;;;;;;;0.00;0.00;;;21.30;99.90;;;;;;5053978;28;20648;-58
2022/08/31 09:29:25;;;;;;;0.00;0.00;;;21.40;99.80;;;;;;5053950;28;20181;-58
2022/08/31 09:32:06;;;;;;;0.00;0.00;;;21.50;99.50;;;;;;5054082;28;20227;-58
2022/08/31 09:34:40;;;;;;;0.00;0.00;;;21.60;99.50;;;;;;5054039;28;20183;-58
2022/08/31 09:37:18;;;;;;;0.00;0.00;;;21.70;99.00;;;;;;5052597;28;20174;-59
2022/08/31 09:39:47;;;;;;;0.00;0.00;;;21.80;98.50;;;;;;5053723;28;20220;-56
2022/08/31 09:42:19;;;;;;;0.00;0.00;;;21.80;98.20;;;;;;5053758;28;20257;-56
2022/08/31 09:44:49;;;;;;;2.05;0.35;;;21.90;98.40;;;;;;5053858;28;20181;-56
2022/08/31 09:47:54;;;;;;;0.00;0.00;;;22.10;98.30;;;;;;5053628;28;20178;-55
2022/08/31 09:50:35;;;;;;;0.00;0.00;;;22.40;98.10;;;;;;5053433;28;20185;-56
2022/08/31 09:56:14;;;;;;;0.00;0.00;;;22.80;96.50;;;;;;5033020;28;20672;-56
2022/08/31 09:58:46;;;;;;;0.00;0.00;;;23.00;96.40;;;;;;5042116;28;20234;-56
2022/08/31 10:01:27;;;;;;;0.00;0.00;;;23.20;96.20;;;;;;5053095;28;20303;-56
2022/08/31 10:04:19;;;;;;;0.00;0.00;;;23.30;95.70;;;;;;5053384;28;20177;-56
2022/08/31 10:07:05;;;;;;;0.00;0.00;;;23.40;95.30;;;;;;5053374;28;20184;-55
2022/08/31 10:09:45;;;;;;;0.00;0.00;;;23.40;94.90;;;;;;5053425;28;20208;-58
2022/08/31 10:12:30;;;;;;;0.00;0.00;;;23.50;94.60;;;;;;5053157;28;20252;-56
2022/08/31 10:15:03;;;;;;;0.00;0.00;;;23.50;94.40;;;;;;5053150;28;20679;-57
2022/08/31 10:17:39;;;;;;;0.00;0.00;;;23.50;94.20;;;;;;5053193;28;20707;-57
2022/08/31 10:20:14;;;;;;;0.00;0.00;;;23.60;94.10;;;;;;5053069;28;20548;-58
2022/08/31 10:22:45;;;;;;;0.00;0.00;;;23.60;93.80;;;;;;5053000;28;20693;-57
2022/08/31 10:25:47;;;;;;;0.10;0.10;;;23.60;93.60;;;;;;5052986;28;20186;-57
2022/08/31 10:28:17;;;;;;;0.00;0.00;;;23.60;93.30;;;;;;5052845;28;20177;-57
2022/08/31 10:30:51;;;;;;;0.00;0.00;;;23.60;93.70;;;;;;5052903;28;20565;-57
2022/08/31 10:33:24;;;;;;;0.10;0.10;;;23.70;94.10;;;;;;5052692;28;20257;-58
2022/08/31 10:35:57;;;;;;;0.00;0.00;;;23.80;93.00;;;;;;5052741;28;20651;-57
2022/08/31 10:38:35;;;;;;;0.00;0.00;;;24.00;92.90;;;;;;5052692;28;20180;-58
2022/08/31 10:41:15;;;;;;;0.00;0.00;;;24.00;92.30;;;;;;5052569;28;20209;-58
2022/08/31 10:44:05;;;;;;;0.00;0.00;;;24.00;92.80;;;;;;5052707;28;20173;-58
2022/08/31 10:46:31;;;;;;;0.00;0.00;;;24.10;92.50;;;;;;5052578;28;20217;-57
2022/08/31 10:48:58;;;;;;;0.00;0.00;;;24.30;92.70;;;;;;5052494;28;20193;-57
2022/08/31 10:51:36;;;;;;;0.00;0.00;;;24.40;92.50;;;;;;5048099;28;20530;-57
2022/08/31 10:54:23;;;;;;;0.00;0.00;;;24.50;91.90;;;;;;5032528;28;20170;-58
2022/08/31 10:57:28;;;;;;;0.00;0.00;;;24.60;91.60;;;;;;5032582;28;20257;-57
2022/08/31 11:00:40;;;;;;;0.00;0.00;;;24.70;91.40;;;;;;5051077;28;20319;-57
2022/08/31 11:03:18;;;;;;;0.00;0.00;;;24.90;90.90;;;;;;5052037;28;20332;-57
2022/08/31 11:06:02;;;;;;;0.03;0.03;;;25.10;90.30;;;;;;5052284;28;20166;-58
2022/08/31 11:08:52;;;;;;;0.00;0.00;;;25.10;90.40;;;;;;5052201;28;20173;-57
2022/08/31 11:11:39;;;;;;;0.00;0.00;;;25.30;89.30;;;;;;5052045;28;20204;-57
2022/08/31 11:14:31;;;;;;;0.00;0.00;;;25.20;88.50;;;;;;5052081;28;20181;-58
2022/08/31 11:17:04;;;;;;;0.00;0.00;;;25.00;88.90;;;;;;5051925;28;20192;-57
2022/08/31 11:19:39;;;;;;;0.00;0.00;;;25.00;89.20;;;;;;5051979;28;20194;-57
2022/08/31 11:22:22;;;;;;;0.00;0.00;;;25.10;88.70;;;;;;5051933;28;20187;-58
2022/08/31 11:25:02;;;;;;;0.00;0.00;;;25.10;89.20;;;;;;5052109;28;20181;-57
2022/08/31 11:27:49;;;;;;;0.00;0.00;;;25.10;89.00;;;;;;5051889;28;20252;-58
2022/08/31 11:30:27;;;;;;;0.00;0.00;;;25.10;87.90;;;;;;5051743;28;20581;-58
2022/08/31 11:33:09;;;;;;;0.00;0.00;;;25.00;87.50;;;;;;5051979;28;20181;-58
2022/08/31 11:38:39;;;;;;;0.00;0.00;;;24.70;88.40;;;;;;5051761;28;20269;-57
2022/08/31 11:41:09;;;;;;;0.00;0.00;;;24.60;88.50;;;;;;5051562;28;20220;-58
2022/08/31 11:43:42;;;;;;;0.00;0.00;;;24.60;88.60;;;;;;5051845;28;20186;-57
2022/08/31 11:46:25;;;;;;;0.00;0.00;;;24.60;88.40;;;;;;5051695;28;20227;-59
2022/08/31 11:48:52;;;;;;;0.00;0.00;;;24.60;89.00;;;;;;5051684;28;20543;-58
2022/08/31 11:51:39;;;;;;;0.00;0.00;;;24.70;88.50;;;;;;5051335;28;20276;-58
2022/08/31 11:54:12;;;;;;;0.10;0.10;;;24.70;87.80;;;;;;5051604;28;20189;-58
2022/08/31 11:56:43;;;;;;;0.00;0.00;;;24.60;87.20;;;;;;5051642;28;20177;-57
2022/08/31 11:59:24;;;;;;;0.00;0.00;;;24.50;87.60;;;;;;5051528;28;20743;-58
2022/08/31 12:01:50;;;;;;;0.00;0.00;;;24.50;87.90;;;;;;5051484;28;20260;-57
2022/08/31 12:04:44;;;;;;;0.00;0.00;;;24.50;88.00;;;;;;5051398;28;20632;-58
2022/08/31 12:07:13;;;;;;;0.00;0.00;;;24.50;89.50;;;;;;5051437;28;20232;-58
2022/08/31 12:09:54;;;;;;;0.00;0.00;;;24.50;91.30;;;;;;5051381;28;20704;-57
2022/08/31 12:12:38;;;;;;;0.00;0.00;;;24.50;91.80;;;;;;5050143;28;20242;-57
2022/08/31 12:15:31;;;;;;;0.00;0.00;;;24.50;92.50;;;;;;5051421;28;20176;-58
2022/08/31 12:18:09;;;;;;;0.00;0.00;;;24.50;93.00;;;;;;5051344;28;20170;-57
2022/08/31 12:24:14;;;;;;;0.00;0.00;;;24.40;97.40;;;;;;5055505;28;20296;-57
2022/08/31 12:26:50;;;;;;;0.00;0.00;;;24.20;98.60;;;;;;5055208;28;20170;-58
2022/08/31 12:29:19;;;;;;;0.00;0.00;;;24.00;99.20;;;;;;5054987;28;20188;-58
2022/08/31 12:32:18;;;;;;;0.00;0.00;;;23.90;99.90;;;;;;5055242;28;20177;-57
2022/08/31 12:34:59;;;;;;;0.00;0.00;;;24.00;99.90;;;;;;5055109;28;20276;-58
2022/08/31 12:37:34;;;;;;;0.00;0.00;;;24.10;99.90;;;;;;5055041;28;20181;-57
2022/08/31 12:40:10;;;;;;;0.00;0.00;;;24.00;99.90;;;;;;5054893;28;20290;-58
2022/08/31 12:42:50;;;;;;;0.00;0.00;;;23.90;99.90;;;;;;5054900;28;20226;-57
2022/08/31 12:45:16;;;;;;;0.00;0.00;;;23.90;99.90;;;;;;5054764;28;20177;-58
2022/08/31 12:47:57;;;;;;;0.00;0.00;;;23.80;99.90;;;;;;5054914;28;20184;-58
2022/08/31 12:50:40;;;;;;;0.00;0.00;;;23.70;99.90;;;;;;5054840;28;20633;-57
2022/08/31 12:53:23;;;;;;;0.00;0.00;;;23.80;99.90;;;;;;5034818;28;20181;-58
2022/08/31 12:55:59;;;;;;;0.00;0.00;;;24.10;99.90;;;;;;5034903;28;20182;-57
2022/08/31 12:59:02;;;;;;;0.10;0.10;;;24.20;99.90;;;;;;5041238;28;20648;-57
2022/08/31 13:01:27;;;;;;;0.00;0.00;;;24.40;99.90;;;;;;5054312;28;20272;-57
2022/08/31 13:03:59;;;;;;;0.00;0.00;;;24.50;99.80;;;;;;5054657;28;20649;-57
2022/08/31 13:06:32;;;;;;;0.00;0.00;;;24.70;99.90;;;;;;5054524;28;20238;-57
2022/08/31 13:08:59;;;;;;;0.00;0.00;;;25.00;99.70;;;;;;5054288;28;20650;-57
2022/08/31 13:11:25;;;;;;;0.00;0.00;;;25.10;99.00;;;;;;5054411;28;20549;-58
2022/08/31 13:13:52;;;;;;;0.00;0.00;;;25.20;98.20;;;;;;5054391;28;20185;-58
2022/08/31 13:16:18;;;;;;;0.00;0.00;;;25.30;97.90;;;;;;5054149;28;20189;-58
2022/08/31 13:18:45;;;;;;;0.00;0.00;;;25.40;98.20;;;;;;5053117;28;20185;-57
2022/08/31 13:21:18;;;;;;;0.13;0.13;;;25.60;97.40;;;;;;5054241;28;20221;-58
2022/08/31 13:23:47;;;;;;;0.00;0.00;;;25.70;97.40;;;;;;5054321;28;20174;-57
2022/08/31 13:26:23;;;;;;;0.00;0.00;;;25.60;96.80;;;;;;5054078;28;20738;-58